createdAt,value
2022-08-05T00:00:17.514Z,24.80
2022-08-05T00:06:02.866Z,24.80
2022-08-05T00:11:00.864Z,24.80
2022-08-05T00:13:38.730Z,24.70
2022-08-05T00:16:09.429Z,24.70
2022-08-05T00:18:39.579Z,24.70
2022-08-05T00:21:08.445Z,24.70
2022-08-05T00:28:52.175Z,24.60
2022-08-05T00:37:10.690Z,24.50
2022-08-05T00:39:44.400Z,24.50
2022-08-05T00:42:32.884Z,24.50
2022-08-05T00:45:02.339Z,24.50
2022-08-05T00:47:53.403Z,24.50
2022-08-05T00:50:18.763Z,25.90
2022-08-05T00:52:49.132Z,27.30
2022-08-05T00:55:17.284Z,24.40
2022-08-05T00:57:58.211Z,24.90
2022-08-05T01:00:29.148Z,24.40
2022-08-05T01:02:57.658Z,24.40
2022-08-05T01:05:29.057Z,24.30
2022-08-05T01:08:41.929Z,24.30
2022-08-05T01:10:52.332Z,24.30
2022-08-05T01:13:27.516Z,24.30
2022-08-05T01:16:28.865Z,27.90
2022-08-05T01:19:03.626Z,24.20
2022-08-05T01:21:51.827Z,27.50
2022-08-05T01:24:47.835Z,24.20
2022-08-05T01:27:32.876Z,24.20
2022-08-05T01:30:05.352Z,24.20
2022-08-05T01:32:48.248Z,24.20
2022-08-05T01:35:51.343Z,24.10
2022-08-05T01:38:09.509Z,24.10
2022-08-05T01:40:53.897Z,24.10
2022-08-05T01:43:24.158Z,24.10
2022-08-05T01:45:56.262Z,24.00
2022-08-05T01:48:26.001Z,24.20
2022-08-05T01:50:56.973Z,25.50
2022-08-05T01:53:54.528Z,23.80
2022-08-05T01:58:10.131Z,25.60
2022-08-05T01:59:09.998Z,23.80
2022-08-05T02:01:40.626Z,23.80
2022-08-05T02:04:10.500Z,27.00
2022-08-05T02:06:39.352Z,23.90
2022-08-05T02:09:08.214Z,23.90
2022-08-05T02:11:48.009Z,27.00
2022-08-05T02:14:26.829Z,23.90
2022-08-05T02:16:57.514Z,23.90
2022-08-05T02:19:34.432Z,23.80
2022-08-05T02:22:08.327Z,23.90
2022-08-05T02:24:39.893Z,23.80
2022-08-05T02:27:11.375Z,23.80
2022-08-05T02:29:58.973Z,23.80
2022-08-05T02:32:31.851Z,23.70
2022-08-05T02:35:13.758Z,23.70
2022-08-05T02:37:46.515Z,23.70
2022-08-05T02:40:21.623Z,23.70
2022-08-05T02:42:52.537Z,23.70
2022-08-05T02:45:23.846Z,25.80
2022-08-05T02:48:07.609Z,23.70
2022-08-05T02:50:44.066Z,23.70
2022-08-05T02:53:19.075Z,23.70
2022-08-05T02:55:54.569Z,23.70
2022-08-05T02:58:26.549Z,23.70
2022-08-05T03:00:56.706Z,23.70
2022-08-05T03:03:34.248Z,23.70
2022-08-05T03:06:55.890Z,23.60
2022-08-05T03:09:06.439Z,23.70
2022-08-05T03:11:53.470Z,25.20
2022-08-05T03:14:23.605Z,23.50
2022-08-05T03:16:51.876Z,23.40
2022-08-05T03:19:33.409Z,23.40
2022-08-05T03:22:04.731Z,23.40
2022-08-05T03:24:33.715Z,23.40
2022-08-05T03:27:03.206Z,25.40
2022-08-05T03:29:45.269Z,23.50
2022-08-05T03:32:31.032Z,23.50
2022-08-05T03:35:00.901Z,23.50
2022-08-05T03:37:28.835Z,23.50
2022-08-05T03:40:01.506Z,23.50
2022-08-05T03:42:32.859Z,23.50
2022-08-05T03:45:22.010Z,23.50
2022-08-05T03:47:51.165Z,23.50
2022-08-05T03:50:21.380Z,23.40
2022-08-05T03:55:51.250Z,23.50
2022-08-05T03:56:09.888Z,25.20
2022-08-05T03:58:37.783Z,23.40
2022-08-05T04:01:13.134Z,23.40
2022-08-05T04:03:56.902Z,23.40
2022-08-05T04:06:35.760Z,23.40
2022-08-05T04:09:05.910Z,26.40
2022-08-05T04:11:47.216Z,25.20
2022-08-05T04:14:18.051Z,23.30
2022-08-05T04:16:46.293Z,23.30
2022-08-05T04:19:15.204Z,23.30
2022-08-05T04:22:10.080Z,23.90
2022-08-05T04:24:34.631Z,23.30
2022-08-05T04:27:02.562Z,23.20
2022-08-05T04:29:30.507Z,26.10
2022-08-05T04:32:00.912Z,23.20
2022-08-05T04:34:32.914Z,23.20
2022-08-05T04:37:04.900Z,23.20
2022-08-05T04:39:33.520Z,23.10
2022-08-05T04:42:03.684Z,23.30
2022-08-05T04:44:31.768Z,23.10
2022-08-05T04:46:59.805Z,23.10
2022-08-05T04:49:38.823Z,24.70
2022-08-05T04:52:27.606Z,23.00
2022-08-05T04:54:57.491Z,23.00
2022-08-05T04:57:28.593Z,23.00
2022-08-05T04:59:58.597Z,23.00
2022-08-05T05:02:37.701Z,23.00
2022-08-05T05:05:17.054Z,23.00
2022-08-05T05:08:02.019Z,23.00
2022-08-05T05:10:30.716Z,24.10
2022-08-05T05:13:03.965Z,23.00
2022-08-05T05:15:57.134Z,23.00
2022-08-05T05:18:28.666Z,22.90
2022-08-05T05:20:59.338Z,23.00
2022-08-05T05:24:02.099Z,22.90
2022-08-05T05:26:17.578Z,22.90
2022-08-05T05:28:45.602Z,22.90
2022-08-05T05:31:13.618Z,22.90
2022-08-05T05:33:59.402Z,22.80
2022-08-05T05:36:29.959Z,22.80
2022-08-05T05:38:59.513Z,22.80
2022-08-05T05:41:40.857Z,22.70
2022-08-05T05:44:35.744Z,22.90
2022-08-05T05:46:58.606Z,24.10
2022-08-05T05:49:33.161Z,22.90
2022-08-05T05:52:06.033Z,23.00
2022-08-05T05:54:50.507Z,26.30
2022-08-05T05:57:19.501Z,23.00
2022-08-05T05:59:48.753Z,23.80
2022-08-05T06:02:16.972Z,23.40
2022-08-05T06:04:49.154Z,23.10
2022-08-05T06:07:17.317Z,23.10
2022-08-05T06:10:00.883Z,23.10
2022-08-05T06:12:32.607Z,23.10
2022-08-05T06:15:02.249Z,23.20
2022-08-05T06:17:31.041Z,23.60
2022-08-05T06:19:59.734Z,23.30
2022-08-05T06:22:29.589Z,23.40
2022-08-05T06:24:59.261Z,23.30
2022-08-05T06:28:12.677Z,23.40
2022-08-05T06:30:17.773Z,23.40
2022-08-05T06:32:50.725Z,24.80
2022-08-05T06:36:02.999Z,25.00
2022-08-05T06:38:11.253Z,23.80
2022-08-05T06:40:44.466Z,23.90
2022-08-05T06:43:57.412Z,24.10
2022-08-05T06:46:04.060Z,24.20
2022-08-05T06:48:53.402Z,24.20
2022-08-05T06:51:51.131Z,24.30
2022-08-05T06:54:19.564Z,24.30
2022-08-05T06:57:56.563Z,24.30
2022-08-05T06:59:48.583Z,24.30
2022-08-05T07:02:26.214Z,24.30
2022-08-05T07:04:57.481Z,27.90
2022-08-05T07:07:35.482Z,24.40
2022-08-05T07:10:14.834Z,26.30
2022-08-05T07:13:06.471Z,24.40
2022-08-05T07:16:01.723Z,24.50
2022-08-05T07:18:32.791Z,24.40
2022-08-05T07:21:05.529Z,24.30
2022-08-05T07:23:33.599Z,26.20
2022-08-05T07:26:04.400Z,25.20
2022-08-05T07:28:34.143Z,24.30
2022-08-05T07:31:02.151Z,24.40
2022-08-05T07:33:36.486Z,24.40
2022-08-05T07:36:20.195Z,24.40
2022-08-05T07:38:55.002Z,24.40
2022-08-05T07:42:13.563Z,24.40
2022-08-05T07:44:18.920Z,24.50
2022-08-05T07:46:48.255Z,24.50
2022-08-05T07:49:18.145Z,25.70
2022-08-05T07:51:53.863Z,27.90
2022-08-05T07:54:30.582Z,24.60
2022-08-05T07:57:22.694Z,24.60
2022-08-05T07:59:51.279Z,27.70
2022-08-05T08:02:19.287Z,27.80
2022-08-05T08:04:54.420Z,25.60
2022-08-05T08:07:23.418Z,24.80
2022-08-05T08:09:54.990Z,26.70
2022-08-05T08:12:35.103Z,24.70
2022-08-05T08:15:15.585Z,24.70
2022-08-05T08:17:49.647Z,24.80
2022-08-05T08:20:44.175Z,24.90
2022-08-05T08:24:00.024Z,25.00
2022-08-05T08:26:02.827Z,25.10
2022-08-05T08:28:36.394Z,25.20
2022-08-05T08:31:07.557Z,25.20
2022-08-05T08:33:38.145Z,25.20
2022-08-05T08:38:57.056Z,25.30
2022-08-05T08:41:51.045Z,25.40
2022-08-05T08:45:22.939Z,25.40
2022-08-05T08:47:47.215Z,25.90
2022-08-05T08:50:07.600Z,25.60
2022-08-05T08:52:53.126Z,25.70
2022-08-05T08:55:32.103Z,25.70
2022-08-05T08:58:12.986Z,25.70
2022-08-05T09:00:42.415Z,28.00
2022-08-05T09:03:12.554Z,28.70
2022-08-05T09:06:07.550Z,25.90
2022-08-05T09:08:32.404Z,25.90
2022-08-05T09:11:00.414Z,26.00
2022-08-05T09:13:31.803Z,26.00
2022-08-05T09:16:00.286Z,26.10
2022-08-05T09:18:29.640Z,26.10
2022-08-05T09:20:57.930Z,26.20
2022-08-05T09:23:28.908Z,26.80
2022-08-05T09:26:20.675Z,26.30
2022-08-05T09:28:50.329Z,26.40
2022-08-05T09:32:39.049Z,26.40
2022-08-05T09:34:10.476Z,26.40
2022-08-05T09:36:54.084Z,26.50
2022-08-05T09:39:27.778Z,26.50
2022-08-05T09:42:13.452Z,27.40
2022-08-05T09:44:50.583Z,26.60
2022-08-05T09:47:21.047Z,27.50
2022-08-05T09:50:00.576Z,26.70
2022-08-05T09:52:32.328Z,28.30
2022-08-05T09:55:06.339Z,26.90
2022-08-05T09:57:49.960Z,26.50
2022-08-05T10:00:24.668Z,29.00
2022-08-05T10:02:54.868Z,26.60
2022-08-05T10:05:32.744Z,28.60
2022-08-05T10:08:36.009Z,26.70
2022-08-05T10:10:54.113Z,26.80
2022-08-05T10:13:43.916Z,28.00
2022-08-05T10:16:34.202Z,26.90
2022-08-05T10:19:09.295Z,27.00
2022-08-05T10:21:40.150Z,27.00
2022-08-05T10:24:10.727Z,27.10
2022-08-05T10:26:51.922Z,27.10
2022-08-05T10:29:23.882Z,27.10
2022-08-05T10:35:46.692Z,27.20
2022-08-05T10:38:33.183Z,28.20
2022-08-05T10:41:14.480Z,27.20
2022-08-05T10:43:57.102Z,27.30
2022-08-05T10:46:44.684Z,27.40
2022-08-05T10:49:16.966Z,27.40
2022-08-05T10:51:48.626Z,27.50
2022-08-05T10:55:02.853Z,24.50
2022-08-05T10:57:33.926Z,27.50
2022-08-05T11:00:19.764Z,29.00
2022-08-05T11:03:23.012Z,27.50
2022-08-05T11:06:15.032Z,27.50
2022-08-05T11:09:31.896Z,27.50
2022-08-05T11:12:50.904Z,27.50
2022-08-05T11:16:00.623Z,27.50
2022-08-05T11:18:27.551Z,29.30
2022-08-05T11:20:59.021Z,27.60
2022-08-05T11:24:03.273Z,31.00
2022-08-05T11:26:32.172Z,27.70
2022-08-05T11:29:11.879Z,27.80
2022-08-05T11:31:53.882Z,27.90
2022-08-05T11:34:38.670Z,27.90
2022-08-05T11:38:29.105Z,28.10
2022-08-05T11:39:55.620Z,28.20
2022-08-05T11:42:37.939Z,28.30
2022-08-05T11:45:22.982Z,28.30
2022-08-05T11:47:55.293Z,28.40
2022-08-05T11:50:23.482Z,28.40
2022-08-05T11:52:57.676Z,28.40
2022-08-05T11:55:32.377Z,28.40
2022-08-05T11:58:08.557Z,28.40
2022-08-05T12:00:44.412Z,31.20
2022-08-05T12:03:29.194Z,28.20
2022-08-05T12:06:02.057Z,28.20
2022-08-05T12:08:32.665Z,28.10
2022-08-05T12:11:05.857Z,28.10
2022-08-05T12:13:48.403Z,28.10
2022-08-05T12:16:26.957Z,28.10
2022-08-05T12:18:55.464Z,31.00
2022-08-05T12:21:26.840Z,28.20
2022-08-05T12:24:05.085Z,28.20
2022-08-05T12:26:36.477Z,28.30
2022-08-05T12:29:05.817Z,28.40
2022-08-05T12:31:46.169Z,28.50
2022-08-05T12:34:20.604Z,30.30
2022-08-05T12:36:53.451Z,28.70
2022-08-05T12:39:22.044Z,28.80
2022-08-05T12:41:58.151Z,28.80
2022-08-05T12:44:33.648Z,31.80
2022-08-05T12:47:03.912Z,28.90
2022-08-05T12:50:04.814Z,30.70
2022-08-05T12:52:41.881Z,29.00
2022-08-05T12:56:34.341Z,29.00
2022-08-05T12:58:49.932Z,29.00
2022-08-05T13:02:01.159Z,31.90
2022-08-05T13:04:16.665Z,29.00
2022-08-05T13:06:52.035Z,30.20
2022-08-05T13:09:27.932Z,28.70
2022-08-05T13:12:03.900Z,28.70
2022-08-05T13:14:37.897Z,28.70
2022-08-05T13:17:11.151Z,28.70
2022-08-05T13:19:52.167Z,28.60
2022-08-05T13:22:28.491Z,28.60
2022-08-05T13:25:00.686Z,31.20
2022-08-05T13:27:35.594Z,29.00
2022-08-05T13:30:34.510Z,30.80
2022-08-05T13:33:01.155Z,28.60
2022-08-05T13:35:47.678Z,28.70
2022-08-05T13:38:30.878Z,28.80
2022-08-05T13:41:05.014Z,28.70
2022-08-05T13:43:45.035Z,28.70
2022-08-05T13:46:44.027Z,28.80
2022-08-05T13:49:12.741Z,28.80
2022-08-05T13:51:46.701Z,28.80
2022-08-05T13:54:16.447Z,30.20
2022-08-05T13:56:51.093Z,28.70
2022-08-05T13:59:24.167Z,30.20
2022-08-05T14:01:57.737Z,28.80
2022-08-05T14:04:49.598Z,31.40
2022-08-05T14:07:56.907Z,29.50
2022-08-05T14:10:12.160Z,29.00
2022-08-05T14:12:42.747Z,29.10
2022-08-05T14:16:07.071Z,29.30
2022-08-05T14:18:00.848Z,29.30
2022-08-05T14:20:29.564Z,30.30
2022-08-05T14:23:01.009Z,29.60
2022-08-05T14:25:30.826Z,30.00
2022-08-05T14:27:59.376Z,29.80
2022-08-05T14:30:28.699Z,29.90
2022-08-05T14:32:58.779Z,29.90
2022-08-05T14:35:36.314Z,29.90
2022-08-05T14:38:07.152Z,29.90
2022-08-05T14:40:55.320Z,29.90
2022-08-05T14:43:57.704Z,29.90
2022-08-05T14:46:12.644Z,32.10
2022-08-05T14:48:40.706Z,29.80
2022-08-05T14:51:09.725Z,29.80
2022-08-05T14:53:44.912Z,29.60
2022-08-05T14:56:13.426Z,29.50
2022-08-05T14:58:47.809Z,29.50
2022-08-05T15:01:47.112Z,29.50
2022-08-05T15:04:11.712Z,29.50
2022-08-05T15:06:40.422Z,29.50
2022-08-05T15:09:10.807Z,29.50
2022-08-05T15:11:51.405Z,29.40
2022-08-05T15:14:35.034Z,29.40
2022-08-05T15:17:44.582Z,29.30
2022-08-05T15:19:58.933Z,29.30
2022-08-05T15:22:28.400Z,29.20
2022-08-05T15:24:59.018Z,30.80
2022-08-05T15:27:32.048Z,29.30
2022-08-05T15:30:07.997Z,29.30
2022-08-05T15:32:39.258Z,29.30
2022-08-05T15:35:10.839Z,29.30
2022-08-05T15:38:34.455Z,29.30
2022-08-05T15:41:01.467Z,31.70
2022-08-05T15:43:20.373Z,29.40
2022-08-05T15:46:00.205Z,29.60
2022-08-05T15:48:29.991Z,29.90
2022-08-05T15:51:01.523Z,30.20
2022-08-05T15:53:38.552Z,30.50
2022-08-05T15:56:23.185Z,30.70
2022-08-05T15:58:51.184Z,32.00
2022-08-05T16:01:20.046Z,31.20
2022-08-05T16:03:50.497Z,31.40
2022-08-05T16:06:20.367Z,31.60
2022-08-05T16:08:51.074Z,32.60
2022-08-05T16:11:40.169Z,31.80
2022-08-05T16:14:17.306Z,33.70
2022-08-05T16:16:47.036Z,32.80
2022-08-05T16:19:25.520Z,32.30
2022-08-05T16:22:03.917Z,32.50
2022-08-05T16:24:41.922Z,32.60
2022-08-05T16:27:32.310Z,32.70
2022-08-05T16:30:26.097Z,32.80
2022-08-05T16:32:54.957Z,32.90
2022-08-05T16:35:28.380Z,33.10
2022-08-05T16:38:16.346Z,33.20
2022-08-05T16:40:55.019Z,33.20
2022-08-05T16:43:30.139Z,33.30
2022-08-05T16:46:03.897Z,35.70
2022-08-05T16:48:36.527Z,34.00
2022-08-05T16:51:09.157Z,32.50
2022-08-05T16:54:05.687Z,32.20
2022-08-05T16:56:27.834Z,31.90
2022-08-05T16:58:58.064Z,31.50
2022-08-05T17:01:53.028Z,31.00
2022-08-05T17:04:16.997Z,32.60
2022-08-05T17:06:53.326Z,30.30
2022-08-05T17:09:21.591Z,29.90
2022-08-05T17:11:55.973Z,29.50
2022-08-05T17:14:37.022Z,29.10
2022-08-05T17:17:06.799Z,28.80
2022-08-05T17:19:45.675Z,28.50
2022-08-05T17:22:25.034Z,28.10
2022-08-05T17:24:57.691Z,27.80
2022-08-05T17:27:27.552Z,27.60
2022-08-05T17:30:04.549Z,27.30
2022-08-05T17:32:40.103Z,27.10
2022-08-05T17:35:12.317Z,26.70
2022-08-05T17:37:45.323Z,26.50
2022-08-05T17:40:22.630Z,26.40
2022-08-05T17:42:52.976Z,26.20
2022-08-05T17:45:24.877Z,28.30
2022-08-05T17:47:56.089Z,26.10
2022-08-05T17:50:28.178Z,25.90
2022-08-05T17:52:59.685Z,27.00
2022-08-05T17:55:37.257Z,25.80
2022-08-05T17:58:09.560Z,25.70
2022-08-05T18:00:44.267Z,26.70
2022-08-05T18:03:28.095Z,26.00
2022-08-05T18:06:04.573Z,25.50
2022-08-05T18:08:33.881Z,25.30
2022-08-05T18:11:03.051Z,25.30
2022-08-05T18:13:36.842Z,25.30
2022-08-05T18:16:14.423Z,25.20
2022-08-05T18:18:47.821Z,26.90
2022-08-05T18:21:19.632Z,25.10
2022-08-05T18:23:49.227Z,28.90
2022-08-05T18:26:22.101Z,25.00
2022-08-05T18:28:57.412Z,25.00
2022-08-05T18:31:33.162Z,24.90
2022-08-05T18:34:06.004Z,28.30
2022-08-05T18:36:38.509Z,25.90
2022-08-05T18:39:22.638Z,24.80
2022-08-05T18:42:03.730Z,24.80
2022-08-05T18:44:51.389Z,24.70
2022-08-05T18:47:26.452Z,24.70
2022-08-05T18:50:12.741Z,24.60
2022-08-05T18:52:51.335Z,24.60
2022-08-05T18:55:19.924Z,21.10
2022-08-05T18:57:52.710Z,24.50
2022-08-05T19:00:27.282Z,24.40
2022-08-05T19:03:03.709Z,24.30
2022-08-05T19:06:13.288Z,26.60
2022-08-05T19:08:30.611Z,24.10
2022-08-05T19:11:04.922Z,27.30
2022-08-05T19:13:36.708Z,23.90
2022-08-05T19:16:25.281Z,23.80
2022-08-05T19:18:58.566Z,23.80
2022-08-05T19:21:34.265Z,23.70
2022-08-05T19:24:05.723Z,25.70
2022-08-05T19:26:54.733Z,23.60
2022-08-05T19:29:35.523Z,24.20
2022-08-05T19:32:05.043Z,24.80
2022-08-05T19:34:37.850Z,23.40
2022-08-05T19:37:06.549Z,23.40
2022-08-05T19:39:45.514Z,25.00
2022-08-05T19:42:35.044Z,25.70
2022-08-05T19:45:06.054Z,23.30
2022-08-05T19:47:34.410Z,24.10
2022-08-05T19:50:07.872Z,24.90
2022-08-05T19:52:40.686Z,23.10
2022-08-05T19:56:15.164Z,23.00
2022-08-05T19:58:14.659Z,23.00
2022-08-05T20:00:46.699Z,24.60
2022-08-05T20:03:14.832Z,22.90
2022-08-05T20:05:51.307Z,22.80
2022-08-05T20:08:19.758Z,24.70
2022-08-05T20:10:49.771Z,22.70
2022-08-05T20:13:30.205Z,22.70
2022-08-05T20:16:11.499Z,22.70
2022-08-05T20:18:40.043Z,23.50
2022-08-05T20:21:11.307Z,22.50
2022-08-05T20:23:50.834Z,22.50
2022-08-05T20:26:20.344Z,23.90
2022-08-05T20:28:50.320Z,22.40
2022-08-05T20:31:21.647Z,23.20
2022-08-05T20:33:51.349Z,22.30
2022-08-05T20:36:25.938Z,23.70
2022-08-05T20:38:57.734Z,24.60
2022-08-05T20:41:44.358Z,22.10
2022-08-05T20:44:29.720Z,22.00
2022-08-05T20:47:01.145Z,22.00
2022-08-05T20:49:29.347Z,21.90
2022-08-05T20:52:01.144Z,24.10
2022-08-05T20:54:43.648Z,21.80
2022-08-05T20:57:41.876Z,24.40
2022-08-05T21:00:21.200Z,21.70
2022-08-05T21:03:00.025Z,21.60
2022-08-05T21:05:48.098Z,21.50
2022-08-05T21:08:19.381Z,21.50
2022-08-05T21:10:48.962Z,21.40
2022-08-05T21:13:26.551Z,21.40
2022-08-05T21:16:05.543Z,21.30
2022-08-05T21:18:34.132Z,21.30
2022-08-05T21:21:03.879Z,21.20
2022-08-05T21:23:37.223Z,21.20
2022-08-05T21:26:12.296Z,21.10
2022-08-05T21:28:48.055Z,21.10
2022-08-05T21:31:20.978Z,21.00
2022-08-05T21:33:51.217Z,20.90
2022-08-05T21:36:30.064Z,20.90
2022-08-05T21:39:02.149Z,21.70
2022-08-05T21:41:33.705Z,20.80
2022-08-05T21:44:03.780Z,20.80
2022-08-05T21:46:34.517Z,24.10
2022-08-05T21:49:02.987Z,20.50
2022-08-05T21:52:22.403Z,20.50
2022-08-05T21:54:28.091Z,20.50
2022-08-05T21:57:29.196Z,20.50
2022-08-05T22:00:06.130Z,20.50
2022-08-05T22:02:35.035Z,20.50
2022-08-05T22:05:04.400Z,20.50
2022-08-05T22:07:40.508Z,20.40
2022-08-05T22:10:27.065Z,20.40
2022-08-05T22:12:57.141Z,20.40
2022-08-05T22:16:00.596Z,20.30
2022-08-05T22:18:14.776Z,20.20
2022-08-05T22:20:42.966Z,20.20
2022-08-05T22:24:00.935Z,20.20
2022-08-05T22:26:36.363Z,20.10
2022-08-05T22:29:04.360Z,20.10
2022-08-05T22:31:44.861Z,20.00
2022-08-05T22:34:25.536Z,20.00
2022-08-05T22:36:57.023Z,19.90
2022-08-05T22:39:32.563Z,19.90
2022-08-05T22:42:09.564Z,19.80
2022-08-05T22:44:39.829Z,19.80
2022-08-05T22:47:08.320Z,19.70
2022-08-05T22:50:17.702Z,19.60
2022-08-05T22:52:32.794Z,20.00
2022-08-05T22:55:02.672Z,19.40
2022-08-05T22:57:34.175Z,19.50
2022-08-05T23:00:07.880Z,19.50
2022-08-05T23:02:39.823Z,19.50
2022-08-05T23:05:14.359Z,19.40
2022-08-05T23:07:48.651Z,19.40
2022-08-05T23:10:19.692Z,19.40
2022-08-05T23:12:51.327Z,19.40
2022-08-05T23:15:20.227Z,19.30
2022-08-05T23:18:01.263Z,19.20
2022-08-05T23:20:31.532Z,19.20
2022-08-05T23:23:00.259Z,19.20
2022-08-05T23:25:51.589Z,21.20
2022-08-05T23:28:20.832Z,19.00
2022-08-05T23:30:53.107Z,18.90
2022-08-05T23:34:03.155Z,18.90
2022-08-05T23:36:10.837Z,18.80
2022-08-05T23:38:41.856Z,18.80
2022-08-05T23:41:11.123Z,18.70
2022-08-05T23:44:04.698Z,18.60
2022-08-05T23:46:28.967Z,20.60
2022-08-05T23:48:59.847Z,18.40
2022-08-05T23:51:52.907Z,18.30
2022-08-05T23:54:25.485Z,18.20
2022-08-05T23:56:55.310Z,18.20
2022-08-05T23:59:27.586Z,18.20
